Time;durP1;ratioP1;P1;durP2;ratioP2;P2;SDS_P1;SDS_P2;PMS_P1;PMS_P2;Temp;Humidity;BMP_temperature;BMP_pressure;BME280_temperature;BME280_humidity;BME280_pressure;Samples;Min_cycle;Max_cycle;Signal;HPM_P1;HPM_P2
2022/02/10 00:04:20;;;;;;;;;;;6.60;99.90;;;;;;4978355;28;19909;-76
2022/02/10 00:17:43;;;;;;;;;;;6.60;99.90;;;;;;4983369;28;19921;-76
2022/02/10 00:20:35;;;;;;;;;;;6.60;99.90;;;;;;4984292;28;19917;-76
2022/02/10 00:23:16;;;;;;;;;;;6.60;99.90;;;;;;4985603;28;19970;-75
2022/02/10 00:34:09;;;;;;;;;;;6.50;99.90;;;;;;4984160;28;19945;-76
2022/02/10 00:34:14;;;;;;;;;;;6.60;99.90;;;;;;4983927;28;19914;-75
2022/02/10 00:42:06;;;;;;;;;;;6.70;99.90;;;;;;4991530;28;19917;-76
2022/02/10 00:44:32;;;;;;;;;;;6.70;99.90;;;;;;5010681;23;19909;-76
2022/02/10 00:46:57;;;;;;;;;;;6.70;99.90;;;;;;4979056;28;19969;-75
2022/02/10 00:49:23;;;;;;;;;;;6.70;99.90;;;;;;4979376;28;20001;-75
2022/02/10 00:51:49;;;;;;;;;;;6.70;99.90;;;;;;4980619;28;20303;-74
2022/02/10 00:54:18;;;;;;;;;;;6.70;99.90;;;;;;4977185;28;19917;-75
2022/02/10 00:56:45;;;;;;;;;;;6.70;99.90;;;;;;4958204;28;19933;-75
2022/02/10 00:59:22;;;;;;;;;;;6.70;99.90;;;;;;4962462;28;19985;-75
2022/02/10 01:31:34;;;;;;;;;;;6.80;99.90;;;;;;4960736;28;19925;-75
2022/02/10 01:34:00;;;;;;;;;;;6.80;99.90;;;;;;4960524;28;19911;-74
2022/02/10 01:36:26;;;;;;;;;;;6.90;99.90;;;;;;4960475;28;19933;-75
2022/02/10 01:38:51;;;;;;;;;;;6.90;99.90;;;;;;4983077;28;19997;-74
2022/02/10 01:41:52;;;;;;;;;;;6.90;99.90;;;;;;4961054;28;20025;-75
2022/02/10 01:58:25;;;;;;;;;;;6.90;99.90;;;;;;4973259;28;19920;-75
2022/02/10 02:03:35;;;;;;;;;;;7.00;99.90;;;;;;4958668;28;19994;-76
2022/02/10 02:06:07;;;;;;;;;;;7.00;99.90;;;;;;4959801;28;19940;-75
2022/02/10 02:08:36;;;;;;;;;;;7.00;99.90;;;;;;4961587;28;19968;-75
2022/02/10 02:11:02;;;;;;;;;;;7.00;99.90;;;;;;4959721;28;19914;-76
2022/02/10 02:13:28;;;;;;;;;;;7.00;99.90;;;;;;4963029;28;19914;-76
2022/02/10 02:15:53;;;;;;;;;;;7.00;99.90;;;;;;4963111;28;19913;-76
2022/02/10 02:18:19;;;;;;;;;;;7.00;99.90;;;;;;4962831;28;19922;-73
2022/02/10 02:20:46;;;;;;;;;;;7.00;99.90;;;;;;4963027;28;19914;-75
2022/02/10 02:23:12;;;;;;;;;;;7.00;99.90;;;;;;4962605;28;19910;-75
2022/02/10 02:25:37;;;;;;;;;;;7.00;99.90;;;;;;4963917;28;19914;-75
2022/02/10 02:28:07;;;;;;;;;;;7.00;99.90;;;;;;4962931;28;19920;-76
2022/02/10 02:30:58;;;;;;;;;;;7.00;99.90;;;;;;4962844;28;19917;-75
2022/02/10 03:09:08;;;;;;;;;;;6.90;99.90;;;;;;4953364;28;20017;-74
2022/02/10 03:11:39;;;;;;;;;;;6.90;99.90;;;;;;4964801;28;19993;-74
2022/02/10 03:14:18;;;;;;;;;;;6.90;99.90;;;;;;4960545;28;20353;-74
2022/02/10 03:20:00;;;;;;;;;;;6.90;99.90;;;;;;4938539;28;19969;-75
2022/02/10 04:01:03;;;;;;;;;;;6.50;99.90;;;;;;4962709;28;19997;-75
2022/02/10 04:04:01;;;;;;;;;;;6.50;99.90;;;;;;4963855;28;20384;-76
2022/02/10 04:18:12;;;;;;;;;;;6.60;99.90;;;;;;4961920;28;19914;-76
2022/02/10 04:23:07;;;;;;;;;;;6.50;99.90;;;;;;4984571;28;20368;-76
2022/02/10 04:42:46;;;;;;;;;;;6.50;99.90;;;;;;4961660;28;20189;-76
2022/02/10 04:57:48;;;;;;;;;;;6.60;99.90;;;;;;4961871;28;19920;-75
2022/02/10 05:16:56;;;;;;;;;;;6.70;99.90;;;;;;4961715;28;20080;-74
2022/02/10 05:35:19;;;;;;;;;;;6.80;99.90;;;;;;4982548;28;19972;-74
2022/02/10 05:37:49;;;;;;;;;;;6.80;99.90;;;;;;4962310;28;19914;-73
2022/02/10 05:40:25;;;;;;;;;;;6.80;99.90;;;;;;4960565;28;19925;-75
2022/02/10 05:43:20;;;;;;;;;;;6.80;99.90;;;;;;4959928;28;19915;-75
2022/02/10 05:45:49;;;;;;;;;;;6.80;99.90;;;;;;4959287;28;19957;-75
2022/02/10 05:48:44;;;;;;;;;;;6.80;99.90;;;;;;4960351;28;19921;-75
2022/02/10 06:52:30;;;;;;;;;;;6.70;99.90;;;;;;4971431;28;19969;-76
2022/02/10 07:02:50;;;;;;;;;;;6.80;99.90;;;;;;4920459;28;19910;-76
2022/02/10 09:01:50;;;;;;;;;;;6.70;99.90;;;;;;4937549;28;19932;-75
2022/02/10 09:12:01;;;;;;;;;;;6.70;99.90;;;;;;4981903;28;19929;-76
2022/02/10 10:00:08;;;;;;;;;;;7.10;99.90;;;;;;4963317;28;19914;-77
2022/02/10 10:02:39;;;;;;;;;;;7.20;99.90;;;;;;4957717;28;19989;-76
2022/02/10 10:05:32;;;;;;;;;;;7.10;99.90;;;;;;4963504;28;19920;-77
2022/02/10 10:08:10;;;;;;;;;;;7.00;99.90;;;;;;4959504;28;19919;-77
2022/02/10 10:16:08;;;;;;;;;;;7.00;99.90;;;;;;4961821;28;19918;-77
2022/02/10 10:26:42;;;;;;;;;;;7.00;99.90;;;;;;4961485;28;19914;-77
2022/02/10 10:54:17;;;;;;;;;;;7.30;99.90;;;;;;4965702;28;19914;-76
2022/02/10 10:56:49;;;;;;;;;;;7.30;99.90;;;;;;4964133;28;19917;-76
2022/02/10 11:38:03;;;;;;;;;;;7.30;99.90;;;;;;4971183;28;19989;-76
2022/02/10 11:40:31;;;;;;;;;;;7.30;99.90;;;;;;4967343;28;20024;-73
2022/02/10 11:43:09;;;;;;;;;;;7.40;99.90;;;;;;4963498;28;20388;-75
2022/02/10 12:42:27;;;;;;;;;;;7.80;99.90;;;;;;4981687;28;19962;-75
2022/02/10 14:14:28;;;;;;;;;;;7.90;99.90;;;;;;4966050;28;20361;-75
2022/02/10 14:16:58;;;;;;;;;;;7.90;99.90;;;;;;4962188;28;19918;-76
2022/02/10 14:22:50;;;;;;;;;;;7.80;99.90;;;;;;4965716;28;20375;-76
2022/02/10 14:27:28;;;;;;;;;;;7.70;99.90;;;;;;4963962;28;20403;-76
2022/02/10 14:29:54;;;;;;;;;;;7.70;99.90;;;;;;4966566;28;19918;-75
2022/02/10 14:32:23;;;;;;;;;;;7.60;99.90;;;;;;4962065;28;19914;-76
2022/02/10 14:34:52;;;;;;;;;;;7.50;99.90;;;;;;4966455;28;19921;-74
2022/02/10 15:32:38;;;;;;;;;;;6.00;99.90;;;;;;4970420;28;19914;-72
2022/02/10 16:16:19;;;;;;;;;;;5.70;99.90;;;;;;4964491;28;19910;-74
2022/02/10 16:17:27;;;;;;;;;;;5.70;99.90;;;;;;4954284;28;20487;-73
2022/02/10 16:19:55;;;;;;;;;;;5.60;99.90;;;;;;4968344;28;19910;-73
2022/02/10 16:22:27;;;;;;;;;;;5.60;99.90;;;;;;4958645;28;19925;-73
2022/02/10 16:25:00;;;;;;;;;;;5.60;99.90;;;;;;4964583;28;20017;-73
2022/02/10 16:27:29;;;;;;;;;;;5.60;99.90;;;;;;4950468;28;20299;-74
2022/02/10 16:30:11;;;;;;;;;;;5.60;99.90;;;;;;4968825;28;19910;-74
2022/02/10 16:32:39;;;;;;;;;;;5.60;99.90;;;;;;4968418;28;20399;-75
2022/02/10 16:35:05;;;;;;;;;;;5.60;99.90;;;;;;4965896;28;19914;-73
2022/02/10 16:37:33;;;;;;;;;;;5.50;99.90;;;;;;4962380;28;20408;-73
2022/02/10 16:39:58;;;;;;;;;;;5.50;99.90;;;;;;4967728;28;19906;-76
2022/02/10 16:42:24;;;;;;;;;;;5.50;99.90;;;;;;4964531;28;19918;-76
2022/02/10 16:44:51;;;;;;;;;;;5.50;99.90;;;;;;4963826;28;20332;-75
2022/02/10 16:47:17;;;;;;;;;;;5.50;99.90;;;;;;4958877;28;19925;-75
2022/02/10 16:49:49;;;;;;;;;;;5.50;99.90;;;;;;4958780;28;19914;-76
2022/02/10 16:55:24;;;;;;;;;;;5.60;99.90;;;;;;4961440;28;19960;-74
2022/02/10 17:03:19;;;;;;;;;;;5.60;99.90;;;;;;4956640;28;20368;-73
2022/02/10 17:06:08;;;;;;;;;;;5.60;99.90;;;;;;4957420;28;19918;-73
2022/02/10 17:14:21;;;;;;;;;;;5.60;99.90;;;;;;4964657;28;19918;-73
2022/02/10 17:19:33;;;;;;;;;;;5.50;99.90;;;;;;4960909;28;19921;-74
2022/02/10 17:32:27;;;;;;;;;;;5.40;99.90;;;;;;4966216;28;19925;-72
2022/02/10 17:53:48;;;;;;;;;;;5.30;99.90;;;;;;4969476;28;19918;-74
2022/02/10 17:56:14;;;;;;;;;;;5.40;99.90;;;;;;4970125;28;19910;-73
2022/02/10 17:58:40;;;;;;;;;;;5.30;99.90;;;;;;4964416;28;20404;-74
2022/02/10 18:01:06;;;;;;;;;;;5.30;99.90;;;;;;4964051;28;19927;-73
2022/02/10 18:03:32;;;;;;;;;;;5.30;99.90;;;;;;4966295;28;20411;-74
2022/02/10 18:08:42;;;;;;;;;;;5.20;99.90;;;;;;4961067;28;19911;-74
2022/02/10 18:13:59;;;;;;;;;;;5.20;99.90;;;;;;4965178;28;20755;-73
2022/02/10 18:16:30;;;;;;;;;;;5.10;99.90;;;;;;4962089;28;20008;-73
2022/02/10 18:19:34;;;;;;;;;;;5.10;99.90;;;;;;4966459;28;19910;-75
2022/02/10 19:02:02;;;;;;;;;;;5.00;99.90;;;;;;4960913;28;19918;-73
2022/02/10 19:09:41;;;;;;;;;;;4.80;99.90;;;;;;4957641;28;19910;-75
2022/02/10 19:12:16;;;;;;;;;;;4.90;99.90;;;;;;4942524;28;19930;-74
2022/02/10 19:14:46;;;;;;;;;;;4.80;99.90;;;;;;4946151;28;20356;-74
2022/02/10 19:17:12;;;;;;;;;;;4.80;99.90;;;;;;4945561;28;19921;-73
2022/02/10 19:19:37;;;;;;;;;;;4.80;99.90;;;;;;4964635;28;19914;-73
2022/02/10 19:22:03;;;;;;;;;;;4.80;99.90;;;;;;4947381;29;19915;-74
2022/02/10 19:24:29;;;;;;;;;;;4.70;99.90;;;;;;4945359;28;19945;-73
2022/02/10 19:26:54;;;;;;;;;;;4.80;99.90;;;;;;4956754;28;19910;-73
2022/02/10 19:29:21;;;;;;;;;;;4.70;99.90;;;;;;4943161;29;19910;-73
2022/02/10 19:31:47;;;;;;;;;;;4.80;99.90;;;;;;4944586;29;19922;-72
2022/02/10 19:34:13;;;;;;;;;;;4.70;99.90;;;;;;4945036;28;20230;-71
2022/02/10 19:36:39;;;;;;;;;;;4.80;99.90;;;;;;4949772;28;19914;-73
2022/02/10 19:39:05;;;;;;;;;;;4.70;99.90;;;;;;4947477;29;19911;-73
2022/02/10 19:41:35;;;;;;;;;;;4.70;99.90;;;;;;4947884;28;19926;-73
2022/02/10 19:44:02;;;;;;;;;;;4.70;99.90;;;;;;4953757;28;19933;-73
2022/02/10 19:46:28;;;;;;;;;;;4.70;99.90;;;;;;4954528;28;19914;-73
2022/02/10 19:48:54;;;;;;;;;;;4.60;99.90;;;;;;4942538;28;19926;-75
2022/02/10 19:51:20;;;;;;;;;;;4.70;99.90;;;;;;4944963;29;20028;-73
2022/02/10 19:53:47;;;;;;;;;;;4.60;99.90;;;;;;4958572;28;20427;-73
2022/02/10 19:56:14;;;;;;;;;;;4.70;99.90;;;;;;4947642;29;19906;-73
2022/02/10 19:58:40;;;;;;;;;;;4.70;99.90;;;;;;4947985;29;19973;-73
2022/02/10 20:01:06;;;;;;;;;;;4.70;99.90;;;;;;4943026;29;19915;-74
2022/02/10 20:03:34;;;;;;;;;;;4.60;99.90;;;;;;4959274;28;19962;-73
2022/02/10 20:06:02;;;;;;;;;;;4.60;99.90;;;;;;4944245;29;19911;-73
2022/02/10 20:08:28;;;;;;;;;;;4.60;99.90;;;;;;4943205;28;19918;-73
2022/02/10 20:10:55;;;;;;;;;;;4.60;99.90;;;;;;4947057;28;19911;-76
2022/02/10 20:13:25;;;;;;;;;;;4.60;99.90;;;;;;4947110;28;19957;-74
2022/02/10 20:15:51;;;;;;;;;;;4.60;99.90;;;;;;4951607;28;19917;-73
2022/02/10 20:18:20;;;;;;;;;;;4.50;99.90;;;;;;4949459;28;19976;-73
2022/02/10 20:20:46;;;;;;;;;;;4.50;99.90;;;;;;4940930;28;19958;-75
2022/02/10 20:23:15;;;;;;;;;;;4.50;99.90;;;;;;4948187;28;19910;-76
2022/02/10 20:25:40;;;;;;;;;;;4.60;99.90;;;;;;4943657;29;19910;-74
2022/02/10 20:28:09;;;;;;;;;;;4.60;99.90;;;;;;4944777;28;19918;-73
2022/02/10 20:30:35;;;;;;;;;;;4.60;99.90;;;;;;4932924;29;19910;-74
2022/02/10 20:33:01;;;;;;;;;;;4.60;99.90;;;;;;4944634;28;19919;-74
2022/02/10 20:35:27;;;;;;;;;;;4.60;99.90;;;;;;4943521;29;19919;-74
2022/02/10 20:37:58;;;;;;;;;;;4.60;99.90;;;;;;4944556;28;20296;-74
2022/02/10 20:40:24;;;;;;;;;;;4.60;99.90;;;;;;4946690;28;19911;-73
2022/02/10 20:42:50;;;;;;;;;;;4.60;99.90;;;;;;4938843;28;19915;-74
2022/02/10 20:45:16;;;;;;;;;;;4.50;99.90;;;;;;4938739;28;19918;-75
2022/02/10 20:47:41;;;;;;;;;;;4.50;99.90;;;;;;4939450;29;20402;-73
2022/02/10 20:50:07;;;;;;;;;;;4.40;99.90;;;;;;4939717;28;20376;-74
2022/02/10 20:52:33;;;;;;;;;;;4.40;99.90;;;;;;4940215;28;20626;-75
2022/02/10 20:54:59;;;;;;;;;;;4.40;99.90;;;;;;4940825;29;19918;-74
2022/02/10 20:57:26;;;;;;;;;;;4.40;99.90;;;;;;4939493;29;19910;-75
2022/02/10 20:59:53;;;;;;;;;;;4.40;99.90;;;;;;4939499;28;20300;-74
2022/02/10 21:02:28;;;;;;;;;;;4.40;99.90;;;;;;4923364;29;19922;-74
2022/02/10 21:05:10;;;;;;;;;;;4.40;99.90;;;;;;4940899;28;19919;-76
2022/02/10 21:07:42;;;;;;;;;;;4.40;99.90;;;;;;4956122;28;20396;-74
2022/02/10 21:10:12;;;;;;;;;;;4.40;99.90;;;;;;4940575;28;19918;-73
2022/02/10 21:12:40;;;;;;;;;;;4.50;99.90;;;;;;4939170;28;19923;-74
2022/02/10 21:15:10;;;;;;;;;;;4.40;99.90;;;;;;4960397;28;20354;-73
2022/02/10 21:17:36;;;;;;;;;;;4.40;99.90;;;;;;4946212;28;19917;-74
2022/02/10 21:20:04;;;;;;;;;;;4.40;99.90;;;;;;4941820;28;19911;-73
2022/02/10 21:22:34;;;;;;;;;;;4.40;99.90;;;;;;4947788;29;20447;-73
2022/02/10 21:25:15;;;;;;;;;;;4.40;99.90;;;;;;4943805;29;20066;-73
2022/02/10 21:27:44;;;;;;;;;;;4.40;99.90;;;;;;4944799;28;19973;-77
2022/02/10 21:30:10;;;;;;;;;;;4.40;99.90;;;;;;4940595;28;19925;-73
2022/02/10 21:32:47;;;;;;;;;;;4.40;99.90;;;;;;4940354;28;19918;-72
2022/02/10 21:35:26;;;;;;;;;;;4.40;99.90;;;;;;4937234;29;19915;-72
2022/02/10 21:38:16;;;;;;;;;;;4.40;99.90;;;;;;4938879;28;19918;-73
2022/02/10 21:47:21;;;;;;;;;;;4.40;99.90;;;;;;4938883;29;20432;-72
2022/02/10 22:23:24;;;;;;;;;;;4.30;99.90;;;;;;4940352;29;20376;-73
2022/02/10 22:25:52;;;;;;;;;;;4.40;99.90;;;;;;4922937;29;19965;-72
2022/02/10 22:28:30;;;;;;;;;;;4.40;99.90;;;;;;4924324;29;19958;-72
2022/02/10 22:31:11;;;;;;;;;;;4.40;99.90;;;;;;4938993;28;21470;-73
2022/02/10 22:36:14;;;;;;;;;;;4.30;99.90;;;;;;4942795;28;19914;-72
2022/02/10 22:38:40;;;;;;;;;;;4.30;99.90;;;;;;4943803;29;20288;-73
2022/02/10 22:41:10;;;;;;;;;;;4.30;99.90;;;;;;4943226;28;19910;-72
2022/02/10 22:43:37;;;;;;;;;;;4.30;99.90;;;;;;4944511;29;19953;-72
2022/02/10 22:46:02;;;;;;;;;;;4.30;99.90;;;;;;4941963;28;19918;-71
2022/02/10 22:48:28;;;;;;;;;;;4.20;99.90;;;;;;4943665;28;20014;-72
2022/02/10 22:50:53;;;;;;;;;;;4.20;99.90;;;;;;4942597;29;19918;-72
2022/02/10 22:53:22;;;;;;;;;;;4.20;99.90;;;;;;4944676;29;19922;-72
2022/02/10 22:55:47;;;;;;;;;;;4.20;99.90;;;;;;4942934;28;19914;-72
2022/02/10 22:58:13;;;;;;;;;;;4.20;99.90;;;;;;4943702;28;19961;-72
2022/02/10 23:00:49;;;;;;;;;;;4.20;99.90;;;;;;4942315;28;19915;-73
2022/02/10 23:03:16;;;;;;;;;;;4.20;99.90;;;;;;4942887;28;19914;-72
2022/02/10 23:05:41;;;;;;;;;;;4.20;99.90;;;;;;4942177;28;21092;-72
2022/02/10 23:08:07;;;;;;;;;;;4.20;99.90;;;;;;4958301;28;20399;-72
2022/02/10 23:10:47;;;;;;;;;;;4.20;99.90;;;;;;4939841;28;20391;-71
2022/02/10 23:13:14;;;;;;;;;;;4.20;99.90;;;;;;4942344;28;20062;-73
2022/02/10 23:15:40;;;;;;;;;;;4.20;99.90;;;;;;4943656;28;19915;-73
2022/02/10 23:18:10;;;;;;;;;;;4.20;99.90;;;;;;4943919;29;20399;-73
2022/02/10 23:20:36;;;;;;;;;;;4.20;99.90;;;;;;4943746;28;19970;-73
2022/02/10 23:23:04;;;;;;;;;;;4.20;99.90;;;;;;4927851;29;19966;-73
2022/02/10 23:25:31;;;;;;;;;;;4.20;99.90;;;;;;4944087;28;19910;-73
2022/02/10 23:27:56;;;;;;;;;;;4.20;99.90;;;;;;4941920;29;19914;-73
2022/02/10 23:30:23;;;;;;;;;;;4.20;99.90;;;;;;4958647;28;19921;-73
2022/02/10 23:32:51;;;;;;;;;;;4.20;99.90;;;;;;4943246;29;19914;-73
2022/02/10 23:38:04;;;;;;;;;;;4.20;99.90;;;;;;4920532;28;19922;-73
2022/02/10 23:40:33;;;;;;;;;;;4.20;99.90;;;;;;4950692;28;20365;-73
2022/02/10 23:42:58;;;;;;;;;;;4.30;99.90;;;;;;4945552;28;19911;-73
2022/02/10 23:45:27;;;;;;;;;;;4.30;99.90;;;;;;4958506;28;19957;-73
2022/02/10 23:47:55;;;;;;;;;;;4.30;99.90;;;;;;4940917;29;20368;-73
2022/02/10 23:50:26;;;;;;;;;;;4.30;99.90;;;;;;4945574;28;19942;-73
2022/02/10 23:52:54;;;;;;;;;;;4.20;99.90;;;;;;4942315;29;19921;-73
2022/02/10 23:55:29;;;;;;;;;;;4.20;99.90;;;;;;4943270;29;19907;-74
2022/02/10 23:58:19;;;;;;;;;;;4.20;99.90;;;;;;4941976;29;19911;-72
